Time;durP1;ratioP1;P1;durP2;ratioP2;P2;SDS_P1;SDS_P2;PMS_P1;PMS_P2;Temp;Humidity;BMP_temperature;BMP_pressure;BME280_temperature;BME280_humidity;BME280_pressure;Samples;Min_cycle;Max_cycle;Signal;HPM_P1;HPM_P2
2021/01/19 00:00:04;;;;;;;16.58;3.13;;;5.90;91.30;;;;;;5117398;27;20085;-78
2021/01/19 00:02:29;;;;;;;9.00;2.92;;;5.90;91.30;;;;;;5097503;28;20484;-78
2021/01/19 00:04:55;;;;;;;11.35;4.00;;;5.90;91.30;;;;;;5098014;28;20039;-78
2021/01/19 00:07:20;;;;;;;10.27;2.70;;;5.90;91.20;;;;;;5116088;28;20502;-78
2021/01/19 00:09:46;;;;;;;13.25;3.22;;;5.90;91.10;;;;;;5098050;28;20427;-78
2021/01/19 00:12:12;;;;;;;11.65;2.78;;;5.90;91.00;;;;;;5116094;28;20024;-77
2021/01/19 00:14:37;;;;;;;18.92;3.30;;;5.90;91.30;;;;;;5097680;28;20110;-77
2021/01/19 00:17:03;;;;;;;12.93;2.97;;;5.90;90.90;;;;;;5097730;28;20552;-77
2021/01/19 00:19:28;;;;;;;11.25;2.88;;;5.90;90.80;;;;;;5097535;28;20030;-78
2021/01/19 00:21:54;;;;;;;13.80;3.00;;;5.90;90.80;;;;;;5098014;28;20281;-78
2021/01/19 00:24:20;;;;;;;7.88;2.80;;;5.90;90.80;;;;;;5080569;28;20587;-78
2021/01/19 00:26:45;;;;;;;14.43;3.10;;;5.90;90.70;;;;;;5097420;28;20108;-78
2021/01/19 00:29:11;;;;;;;13.50;3.05;;;5.90;90.70;;;;;;5115501;28;20476;-78
2021/01/19 00:31:36;;;;;;;9.43;2.47;;;5.90;90.50;;;;;;5099729;28;20031;-78
2021/01/19 00:34:02;;;;;;;10.95;2.50;;;5.90;90.50;;;;;;5113497;28;20124;-77
2021/01/19 00:36:28;;;;;;;17.10;2.60;;;5.90;90.40;;;;;;5115012;28;20051;-77
2021/01/19 00:38:53;;;;;;;13.23;2.58;;;5.90;90.20;;;;;;5115441;28;20054;-77
2021/01/19 00:41:19;;;;;;;6.53;2.28;;;5.90;90.10;;;;;;5097108;28;20394;-77
2021/01/19 00:43:44;;;;;;;10.00;2.50;;;5.90;90.00;;;;;;5097117;28;20031;-77
2021/01/19 00:46:10;;;;;;;7.75;2.30;;;6.00;90.00;;;;;;5096990;28;20028;-77
2021/01/19 00:48:36;;;;;;;15.10;3.10;;;6.00;90.00;;;;;;5114834;28;20113;-77
2021/01/19 00:51:01;;;;;;;10.57;2.10;;;5.90;89.80;;;;;;5096962;28;20059;-77
2021/01/19 00:53:27;;;;;;;12.48;2.72;;;5.90;89.60;;;;;;5110182;27;20023;-77
2021/01/19 00:55:52;;;;;;;10.73;2.92;;;5.90;89.50;;;;;;5135681;27;20027;-77
2021/01/19 00:58:18;;;;;;;10.75;2.42;;;5.90;89.50;;;;;;5104777;28;20065;-77
2021/01/19 01:00:44;;;;;;;13.10;2.72;;;5.90;89.60;;;;;;5096454;28;20024;-77
2021/01/19 01:03:10;;;;;;;14.20;2.90;;;5.90;89.40;;;;;;5084582;28;20036;-77
2021/01/19 01:05:36;;;;;;;8.75;2.33;;;5.90;88.90;;;;;;5075840;28;20032;-77
2021/01/19 01:08:02;;;;;;;6.15;2.30;;;5.90;89.00;;;;;;5085189;28;20036;-77
2021/01/19 01:10:28;;;;;;;16.23;2.50;;;5.90;89.10;;;;;;5079997;28;20027;-77
2021/01/19 01:12:54;;;;;;;11.25;2.53;;;5.90;88.70;;;;;;5114702;28;20027;-78
2021/01/19 01:15:33;;;;;;;9.70;2.28;;;5.90;88.30;;;;;;5096302;28;20023;-77
2021/01/19 01:17:58;;;;;;;10.20;2.53;;;5.90;88.60;;;;;;5114435;28;20036;-78
2021/01/19 01:20:24;;;;;;;13.27;2.30;;;5.80;89.00;;;;;;5114010;28;20114;-77
2021/01/19 01:22:51;;;;;;;8.88;2.17;;;5.80;88.50;;;;;;5120828;27;20773;-77
2021/01/19 01:25:17;;;;;;;8.25;2.13;;;5.80;88.40;;;;;;5111994;28;20031;-78
2021/01/19 01:27:44;;;;;;;9.25;2.17;;;5.80;88.20;;;;;;5131610;27;20387;-77
2021/01/19 01:30:12;;;;;;;8.98;2.35;;;5.80;87.90;;;;;;5134929;27;20032;-78
2021/01/19 01:32:40;;;;;;;9.93;2.13;;;5.80;88.10;;;;;;5117244;27;20020;-78
2021/01/19 01:35:06;;;;;;;10.98;2.92;;;5.80;88.10;;;;;;5132892;27;20078;-77
2021/01/19 01:37:31;;;;;;;13.02;2.58;;;5.70;88.00;;;;;;5119085;27;20023;-78
2021/01/19 01:39:57;;;;;;;11.88;2.47;;;5.70;88.10;;;;;;5112909;27;20221;-77
2021/01/19 01:42:24;;;;;;;6.85;2.08;;;5.70;87.80;;;;;;5101392;28;20031;-77
2021/01/19 01:44:51;;;;;;;10.18;2.97;;;5.70;87.80;;;;;;5096112;28;20031;-77
2021/01/19 01:47:27;;;;;;;10.30;1.95;;;5.70;87.90;;;;;;5132980;27;20035;-77
2021/01/19 01:49:53;;;;;;;10.38;1.63;;;5.70;87.90;;;;;;5133881;27;20019;-78
2021/01/19 01:52:21;;;;;;;7.90;1.70;;;5.70;87.70;;;;;;5120882;27;20043;-78
2021/01/19 01:54:49;;;;;;;12.90;1.80;;;5.70;87.70;;;;;;5110976;27;20028;-78
2021/01/19 01:57:16;;;;;;;6.97;1.58;;;5.60;87.50;;;;;;5113192;27;20027;-78
2021/01/19 01:59:41;;;;;;;13.43;2.10;;;5.60;87.60;;;;;;5133119;27;20027;-77
2021/01/19 02:02:11;;;;;;;6.25;1.70;;;5.60;87.60;;;;;;5119585;27;20110;-77
2021/01/19 02:04:37;;;;;;;7.90;2.10;;;5.60;87.70;;;;;;5116868;28;20023;-77
2021/01/19 02:07:10;;;;;;;11.18;1.88;;;5.60;87.60;;;;;;5099116;28;20055;-78
2021/01/19 02:09:45;;;;;;;11.50;2.30;;;5.50;87.30;;;;;;5133687;27;20500;-78
2021/01/19 02:12:19;;;;;;;12.13;2.13;;;5.50;87.40;;;;;;5134306;27;20375;-77
2021/01/19 02:15:01;;;;;;;16.20;2.65;;;5.50;87.50;;;;;;5131653;27;20027;-77
2021/01/19 02:17:50;;;;;;;10.32;2.03;;;5.50;87.60;;;;;;5095402;28;20027;-77
2021/01/19 02:20:47;;;;;;;9.73;2.40;;;5.50;87.60;;;;;;5113644;28;20035;-77
2021/01/19 02:23:13;;;;;;;10.23;2.15;;;5.50;87.70;;;;;;5093392;28;20028;-77
2021/01/19 02:25:57;;;;;;;10.55;2.45;;;5.50;87.70;;;;;;5093233;28;20387;-77
2021/01/19 02:28:50;;;;;;;18.85;2.95;;;5.50;87.70;;;;;;5093180;28;20030;-78
2021/01/19 02:31:53;;;;;;;12.27;2.50;;;5.40;87.60;;;;;;5092991;28;20016;-77
2021/01/19 02:34:55;;;;;;;14.32;2.67;;;5.40;87.80;;;;;;5061113;28;20086;-78
2021/01/19 02:37:33;;;;;;;16.73;2.88;;;5.40;87.90;;;;;;5027147;28;20036;-77
2021/01/19 02:40:07;;;;;;;10.07;2.55;;;5.40;88.00;;;;;;5093357;28;20016;-77
2021/01/19 02:43:09;;;;;;;12.68;2.67;;;5.40;88.00;;;;;;5092796;28;20020;-77
2021/01/19 02:45:35;;;;;;;14.13;2.47;;;5.40;88.00;;;;;;5093168;28;20077;-78
2021/01/19 02:48:02;;;;;;;12.15;2.78;;;5.40;88.00;;;;;;5095107;28;20084;-78
2021/01/19 02:50:28;;;;;;;15.65;2.58;;;5.40;87.90;;;;;;5061778;28;20023;-78
2021/01/19 02:52:54;;;;;;;8.35;2.47;;;5.40;88.00;;;;;;5113202;28;20099;-78
2021/01/19 02:55:20;;;;;;;16.10;2.70;;;5.40;88.00;;;;;;5113144;28;20431;-77
2021/01/19 02:58:01;;;;;;;10.07;2.65;;;5.40;88.10;;;;;;5113192;28;20095;-77
2021/01/19 03:00:55;;;;;;;11.25;3.00;;;5.40;88.10;;;;;;5112728;28;20039;-78
2021/01/19 03:03:22;;;;;;;10.00;2.40;;;5.40;88.20;;;;;;5113075;28;20038;-77
2021/01/19 03:05:48;;;;;;;12.05;3.20;;;5.40;88.20;;;;;;5113146;28;20027;-78
2021/01/19 03:08:15;;;;;;;12.40;3.28;;;5.40;88.10;;;;;;5094502;28;20111;-78
2021/01/19 03:10:42;;;;;;;10.55;3.10;;;5.40;88.20;;;;;;5094834;28;20375;-78
2021/01/19 03:13:14;;;;;;;12.27;2.88;;;5.40;88.30;;;;;;5094665;28;20039;-78
2021/01/19 03:15:40;;;;;;;13.95;3.08;;;5.40;88.30;;;;;;5094844;28;20102;-78
2021/01/19 03:18:07;;;;;;;14.48;4.00;;;5.40;88.40;;;;;;5112957;28;20036;-77
2021/01/19 03:20:33;;;;;;;12.40;3.05;;;5.40;89.20;;;;;;5094757;28;20051;-78
2021/01/19 03:22:59;;;;;;;11.65;3.20;;;5.40;88.60;;;;;;5112728;28;20376;-77
2021/01/19 03:25:25;;;;;;;15.32;3.85;;;5.40;88.80;;;;;;5112975;28;20031;-78
2021/01/19 03:27:51;;;;;;;11.23;2.88;;;5.40;88.80;;;;;;5114687;28;20514;-77
2021/01/19 03:30:17;;;;;;;10.57;3.17;;;5.40;88.90;;;;;;5116319;28;20361;-78
2021/01/19 03:32:42;;;;;;;16.50;3.63;;;5.40;89.00;;;;;;5098110;28;20027;-77
2021/01/19 03:35:08;;;;;;;13.38;3.80;;;5.40;89.10;;;;;;5096751;28;20108;-78
2021/01/19 03:37:35;;;;;;;14.52;3.50;;;5.40;89.30;;;;;;5099810;28;20570;-77
2021/01/19 03:40:02;;;;;;;13.15;3.63;;;5.40;89.40;;;;;;5116398;28;20024;-77
2021/01/19 03:42:28;;;;;;;13.52;3.50;;;5.40;89.40;;;;;;5083066;28;20028;-78
2021/01/19 03:44:53;;;;;;;17.60;3.45;;;5.40;89.60;;;;;;5095055;28;20035;-77
2021/01/19 03:47:19;;;;;;;13.75;3.58;;;5.40;89.50;;;;;;5101134;28;20031;-78
2021/01/19 03:49:44;;;;;;;12.10;3.25;;;5.40;89.70;;;;;;5077270;28;20111;-78
2021/01/19 03:52:10;;;;;;;17.80;3.75;;;5.40;89.70;;;;;;5094147;28;20020;-77
2021/01/19 03:54:36;;;;;;;18.90;4.30;;;5.40;89.80;;;;;;5094062;28;20105;-78
2021/01/19 03:57:01;;;;;;;18.58;3.80;;;5.40;90.00;;;;;;5065488;28;20676;-78
2021/01/19 03:59:27;;;;;;;13.05;3.20;;;5.40;90.00;;;;;;5095400;28;20028;-77
2021/01/19 04:01:52;;;;;;;9.38;3.33;;;5.40;90.10;;;;;;5090381;28;20036;-78
2021/01/19 04:04:18;;;;;;;12.55;3.58;;;5.40;90.10;;;;;;5089438;28;20028;-77
2021/01/19 04:06:44;;;;;;;14.38;3.28;;;5.40;90.20;;;;;;5077572;28;20051;-78
2021/01/19 04:09:09;;;;;;;11.32;3.70;;;5.40;90.30;;;;;;5077337;28;20051;-78
2021/01/19 04:11:35;;;;;;;18.63;4.15;;;5.40;90.30;;;;;;5077299;28;20032;-78
2021/01/19 04:14:01;;;;;;;18.25;3.60;;;5.40;90.40;;;;;;5115332;28;20023;-78
2021/01/19 04:16:26;;;;;;;19.27;4.32;;;5.40;90.40;;;;;;5115942;28;20066;-78
2021/01/19 04:18:52;;;;;;;16.30;4.18;;;5.40;90.50;;;;;;5096221;28;20024;-78
2021/01/19 04:21:17;;;;;;;19.13;3.75;;;5.40;90.60;;;;;;5095294;28;20051;-78
2021/01/19 04:23:43;;;;;;;19.40;4.75;;;5.40;90.60;;;;;;5095091;28;20047;-78
2021/01/19 04:26:09;;;;;;;13.05;3.47;;;5.40;90.70;;;;;;5094855;28;20058;-78
2021/01/19 04:28:34;;;;;;;11.52;3.58;;;5.40;90.80;;;;;;5084311;28;20106;-77
2021/01/19 04:31:00;;;;;;;18.23;3.63;;;5.40;90.80;;;;;;5095049;28;20039;-78
2021/01/19 04:33:26;;;;;;;19.30;4.22;;;5.40;90.90;;;;;;5094489;28;20076;-78
2021/01/19 04:35:51;;;;;;;10.85;3.40;;;5.40;91.00;;;;;;5097386;28;20024;-78
2021/01/19 04:38:17;;;;;;;10.70;3.60;;;5.40;91.10;;;;;;5101078;28;20438;-77
2021/01/19 04:40:42;;;;;;;16.95;3.78;;;5.40;91.20;;;;;;5111870;28;20096;-78
2021/01/19 04:43:10;;;;;;;10.57;3.47;;;5.30;91.20;;;;;;5076382;28;20146;-78
2021/01/19 04:45:38;;;;;;;20.30;3.78;;;5.40;91.30;;;;;;5094768;28;20099;-78
2021/01/19 04:48:05;;;;;;;14.27;3.47;;;5.30;91.60;;;;;;5094214;28;20025;-78
2021/01/19 04:50:31;;;;;;;17.92;3.22;;;5.40;91.30;;;;;;5076206;28;20016;-78
2021/01/19 04:52:59;;;;;;;9.13;3.17;;;5.40;91.30;;;;;;5093297;28;20024;-78
2021/01/19 04:55:26;;;;;;;11.32;3.58;;;5.40;91.40;;;;;;5093912;28;20024;-78
2021/01/19 04:58:04;;;;;;;13.23;3.55;;;5.40;91.50;;;;;;5100435;28;20123;-77
2021/01/19 05:00:35;;;;;;;15.40;3.83;;;5.40;91.60;;;;;;5094246;28;20020;-77
2021/01/19 05:03:21;;;;;;;17.13;3.88;;;5.40;91.70;;;;;;5084550;28;20038;-78
2021/01/19 05:05:47;;;;;;;12.32;2.90;;;5.40;91.70;;;;;;5078902;28;20027;-78
2021/01/19 05:08:16;;;;;;;9.70;2.88;;;5.40;91.80;;;;;;5087508;28;20028;-78
2021/01/19 05:11:02;;;;;;;13.55;3.55;;;5.30;91.90;;;;;;5111292;28;20099;-78
2021/01/19 05:13:46;;;;;;;7.57;3.20;;;5.40;92.00;;;;;;5097697;28;20113;-78
2021/01/19 05:16:18;;;;;;;10.25;2.75;;;5.40;92.10;;;;;;5095051;28;20465;-78
2021/01/19 05:18:44;;;;;;;12.60;3.13;;;5.40;92.00;;;;;;5093618;28;20027;-78
2021/01/19 05:21:11;;;;;;;12.65;3.90;;;5.30;92.10;;;;;;5093014;28;20024;-78
2021/01/19 05:23:36;;;;;;;10.65;3.00;;;5.40;92.20;;;;;;5080138;28;20385;-78
2021/01/19 05:26:05;;;;;;;12.27;3.15;;;5.30;92.20;;;;;;5093983;28;20039;-78
2021/01/19 05:28:43;;;;;;;9.63;3.00;;;5.40;92.40;;;;;;5084872;28;20060;-76
2021/01/19 05:31:15;;;;;;;14.25;3.20;;;5.40;92.40;;;;;;5093134;28;20024;-77
2021/01/19 05:34:02;;;;;;;10.98;3.30;;;5.40;92.50;;;;;;5107293;27;20092;-77
2021/01/19 05:36:46;;;;;;;8.10;3.13;;;5.40;92.50;;;;;;5134573;27;20019;-78
2021/01/19 05:39:22;;;;;;;8.70;2.67;;;5.40;92.60;;;;;;5120274;27;20469;-78
2021/01/19 05:41:55;;;;;;;16.08;3.17;;;5.40;92.60;;;;;;5114033;28;20079;-77
2021/01/19 05:44:26;;;;;;;8.75;2.75;;;5.40;92.60;;;;;;5114065;27;20024;-78
2021/01/19 05:47:06;;;;;;;9.27;2.67;;;5.50;92.70;;;;;;5095497;28;20540;-78
2021/01/19 05:49:38;;;;;;;9.10;3.00;;;5.50;92.70;;;;;;5115698;28;20027;-78
2021/01/19 05:52:14;;;;;;;6.65;2.58;;;5.50;92.70;;;;;;5096479;28;20062;-78
2021/01/19 05:54:40;;;;;;;11.57;2.72;;;5.50;93.10;;;;;;5100142;28;20016;-78
2021/01/19 05:57:09;;;;;;;7.50;2.90;;;5.50;92.80;;;;;;5113043;28;20030;-78
2021/01/19 05:59:38;;;;;;;7.28;2.72;;;5.50;92.90;;;;;;5126940;27;20498;-78
2021/01/19 06:02:36;;;;;;;8.93;2.80;;;5.50;92.90;;;;;;5114199;27;20031;-78
2021/01/19 06:05:13;;;;;;;5.87;2.50;;;5.50;93.00;;;;;;5133724;27;20027;-78
2021/01/19 06:07:42;;;;;;;8.05;2.30;;;5.50;93.00;;;;;;5125454;27;20476;-78
2021/01/19 06:10:12;;;;;;;6.70;2.13;;;5.50;93.00;;;;;;5097257;27;20413;-78
2021/01/19 06:12:38;;;;;;;11.40;2.40;;;5.60;93.10;;;;;;5124484;27;20098;-78
2021/01/19 06:15:05;;;;;;;8.00;2.45;;;5.50;93.10;;;;;;5132913;27;20110;-77
2021/01/19 06:17:30;;;;;;;7.22;2.00;;;5.60;93.10;;;;;;5120811;27;20035;-76
2021/01/19 06:20:00;;;;;;;4.68;2.08;;;5.50;93.20;;;;;;5121591;27;20472;-76
2021/01/19 06:22:27;;;;;;;7.35;2.72;;;5.60;93.20;;;;;;5113139;28;20031;-76
2021/01/19 06:24:54;;;;;;;8.20;2.00;;;5.60;93.30;;;;;;5112615;28;20023;-76
2021/01/19 06:27:20;;;;;;;7.25;1.92;;;5.60;93.30;;;;;;5102675;27;20039;-76
2021/01/19 06:29:46;;;;;;;8.38;2.75;;;5.60;93.30;;;;;;5105537;28;20012;-76
2021/01/19 06:32:15;;;;;;;9.43;2.50;;;5.60;93.30;;;;;;5116008;28;20472;-77
2021/01/19 06:34:40;;;;;;;6.55;2.38;;;5.60;93.30;;;;;;5132376;27;20047;-76
2021/01/19 06:37:09;;;;;;;5.57;2.40;;;5.60;93.30;;;;;;5133312;27;20487;-77
2021/01/19 06:39:43;;;;;;;9.60;2.60;;;5.60;93.30;;;;;;5089108;28;20019;-77
2021/01/19 06:42:12;;;;;;;5.72;2.03;;;5.60;93.30;;;;;;5123768;27;20306;-76
2021/01/19 06:44:48;;;;;;;6.15;1.95;;;5.60;93.40;;;;;;5057347;28;20484;-76
2021/01/19 06:47:16;;;;;;;7.85;2.33;;;5.60;93.40;;;;;;5093732;28;20518;-76
2021/01/19 06:49:42;;;;;;;10.18;2.05;;;5.60;93.40;;;;;;5080365;28;20485;-76
2021/01/19 06:52:10;;;;;;;5.70;2.42;;;5.60;93.40;;;;;;5108637;28;20122;-76
2021/01/19 06:54:51;;;;;;;4.93;1.90;;;5.60;93.40;;;;;;5133527;28;20590;-76
2021/01/19 06:57:45;;;;;;;7.13;2.03;;;5.60;93.50;;;;;;5116906;27;20119;-76
2021/01/19 07:00:18;;;;;;;7.03;1.80;;;5.60;93.70;;;;;;5112297;28;20031;-76
2021/01/19 07:02:45;;;;;;;6.30;1.80;;;5.60;93.50;;;;;;5114533;27;20027;-76
2021/01/19 07:05:13;;;;;;;6.63;1.80;;;5.60;93.60;;;;;;5097881;28;20119;-76
2021/01/19 07:07:47;;;;;;;4.90;1.83;;;5.70;93.60;;;;;;5115799;27;20031;-76
2021/01/19 07:10:35;;;;;;;5.43;2.10;;;5.60;93.60;;;;;;5136996;27;20086;-76
2021/01/19 07:13:04;;;;;;;8.57;1.55;;;5.70;93.60;;;;;;5096033;28;20028;-76
2021/01/19 07:15:57;;;;;;;5.82;1.80;;;5.70;93.60;;;;;;5083848;27;20468;-76
2021/01/19 07:18:56;;;;;;;6.20;1.80;;;5.70;93.70;;;;;;5118471;27;20046;-77
2021/01/19 07:21:21;;;;;;;;;;;5.70;93.70;;;;;;5136251;27;20023;-76
2021/01/19 07:23:47;;;;;;;6.68;1.90;;;5.70;93.70;;;;;;5129975;27;20898;-76
2021/01/19 07:26:31;;;;;;;7.40;1.58;;;5.70;93.70;;;;;;5116068;28;20035;-76
2021/01/19 07:28:57;;;;;;;3.53;1.65;;;5.70;93.80;;;;;;5122597;27;20033;-76
2021/01/19 07:31:23;;;;;;;2.92;1.17;;;5.70;93.80;;;;;;5127890;27;20032;-77
2021/01/19 07:33:54;;;;;;;5.35;1.40;;;5.70;93.80;;;;;;5116695;27;20055;-76
2021/01/19 07:36:23;;;;;;;6.28;1.65;;;5.70;93.80;;;;;;5115891;28;20088;-76
2021/01/19 07:38:49;;;;;;;5.55;1.90;;;5.70;93.80;;;;;;5114696;27;20034;-77
2021/01/19 07:41:33;;;;;;;8.45;2.45;;;5.70;93.80;;;;;;5114366;28;20040;-76
2021/01/19 07:44:00;;;;;;;8.88;1.90;;;5.70;93.80;;;;;;5113987;28;20038;-76
2021/01/19 07:46:28;;;;;;;7.15;1.60;;;5.70;93.80;;;;;;5115460;28;20058;-77
2021/01/19 07:49:00;;;;;;;4.50;1.58;;;5.70;93.80;;;;;;5114890;28;20034;-77
2021/01/19 07:51:37;;;;;;;5.78;1.70;;;5.70;93.80;;;;;;5115306;28;20023;-76
2021/01/19 07:54:02;;;;;;;4.97;1.83;;;5.70;93.80;;;;;;5115137;28;20054;-76
2021/01/19 07:56:29;;;;;;;5.82;1.60;;;5.80;93.90;;;;;;5115204;28;20035;-76
2021/01/19 07:58:56;;;;;;;5.20;1.90;;;5.70;93.90;;;;;;5096841;28;20027;-76
2021/01/19 08:01:29;;;;;;;6.63;2.05;;;5.70;93.90;;;;;;5114272;28;20026;-72
2021/01/19 08:04:07;;;;;;;4.35;1.83;;;5.80;94.00;;;;;;5097155;28;20030;-73
2021/01/19 08:06:33;;;;;;;5.63;1.60;;;5.80;94.00;;;;;;5115352;28;20502;-72
2021/01/19 08:09:19;;;;;;;4.55;1.83;;;5.80;94.00;;;;;;5115248;28;20023;-72
2021/01/19 08:11:46;;;;;;;3.95;1.70;;;5.80;94.10;;;;;;5115426;28;20019;-73
2021/01/19 08:14:12;;;;;;;5.35;1.92;;;5.80;94.10;;;;;;5114479;28;20061;-73
2021/01/19 08:16:42;;;;;;;5.70;1.77;;;5.80;94.10;;;;;;5113951;28;20027;-72
2021/01/19 08:19:13;;;;;;;6.18;1.92;;;5.80;94.10;;;;;;5099141;28;20029;-72
2021/01/19 08:21:52;;;;;;;6.40;2.25;;;5.90;94.10;;;;;;5115055;28;20019;-73
2021/01/19 08:24:23;;;;;;;5.70;2.08;;;5.90;94.10;;;;;;5114802;28;20031;-72
2021/01/19 08:26:49;;;;;;;5.28;1.52;;;5.90;94.20;;;;;;5114002;28;20039;-72
2021/01/19 08:29:20;;;;;;;5.63;2.08;;;5.90;94.20;;;;;;5097331;28;20059;-73
2021/01/19 08:31:55;;;;;;;4.50;1.50;;;5.90;94.20;;;;;;5114577;28;20023;-72
2021/01/19 08:34:22;;;;;;;4.65;1.73;;;6.00;94.20;;;;;;5114598;27;20040;-72
2021/01/19 08:36:48;;;;;;;8.02;2.13;;;5.90;94.20;;;;;;5096589;28;20047;-72
2021/01/19 08:39:17;;;;;;;8.35;2.03;;;5.90;94.20;;;;;;5096579;28;20545;-72
2021/01/19 08:41:45;;;;;;;7.93;1.83;;;6.00;94.20;;;;;;5114653;28;20488;-72
2021/01/19 08:44:12;;;;;;;3.40;1.33;;;6.00;94.20;;;;;;5114263;28;20032;-72
2021/01/19 08:46:39;;;;;;;6.28;1.55;;;6.00;94.20;;;;;;5079568;28;20042;-72
2021/01/19 08:49:09;;;;;;;5.53;1.40;;;6.00;94.20;;;;;;5113909;28;20030;-73
2021/01/19 08:51:36;;;;;;;5.22;1.40;;;6.00;94.20;;;;;;5108318;28;20027;-72
2021/01/19 08:54:07;;;;;;;3.22;1.58;;;6.00;94.40;;;;;;5095376;28;20030;-72
2021/01/19 08:56:38;;;;;;;3.20;1.30;;;6.00;94.20;;;;;;5113455;28;20379;-73
2021/01/19 08:59:04;;;;;;;5.07;1.50;;;6.00;94.20;;;;;;5098918;28;20480;-73
2021/01/19 09:01:29;;;;;;;6.47;1.50;;;6.00;94.20;;;;;;5079004;28;20057;-73
2021/01/19 09:04:02;;;;;;;4.57;1.30;;;6.00;94.30;;;;;;5097714;28;20019;-81
2021/01/19 09:06:29;;;;;;;3.28;1.80;;;6.00;94.30;;;;;;5113065;28;20043;-73
2021/01/19 09:09:00;;;;;;;4.22;1.20;;;6.10;94.30;;;;;;5099245;28;20027;-73
2021/01/19 09:11:31;;;;;;;4.28;1.42;;;6.10;94.40;;;;;;5114213;28;20016;-73
2021/01/19 09:14:07;;;;;;;4.07;1.50;;;6.10;94.30;;;;;;5112083;28;20361;-73
2021/01/19 09:16:34;;;;;;;4.38;1.63;;;6.10;94.70;;;;;;5112544;28;20024;-73
2021/01/19 09:19:01;;;;;;;4.32;1.48;;;6.10;94.40;;;;;;5113936;28;20419;-74
2021/01/19 09:21:28;;;;;;;4.43;1.40;;;6.10;94.40;;;;;;5113536;28;20532;-73
2021/01/19 09:23:55;;;;;;;3.42;1.30;;;6.10;94.40;;;;;;5113856;28;20089;-74
2021/01/19 09:26:21;;;;;;;5.93;1.30;;;6.20;94.40;;;;;;5078464;28;20426;-74
2021/01/19 09:28:47;;;;;;;2.13;1.15;;;6.20;94.40;;;;;;5113272;28;20375;-73
2021/01/19 09:31:21;;;;;;;2.80;1.00;;;6.20;94.40;;;;;;5096253;28;20103;-74
2021/01/19 09:33:48;;;;;;;5.32;1.10;;;6.20;94.40;;;;;;5113288;28;20035;-73
2021/01/19 09:36:15;;;;;;;2.83;1.30;;;6.30;94.50;;;;;;5113682;28;20068;-73
2021/01/19 09:38:43;;;;;;;4.57;1.45;;;6.30;94.40;;;;;;5095154;28;20050;-73
2021/01/19 09:41:12;;;;;;;3.05;1.10;;;6.30;94.40;;;;;;5113413;28;20030;-73
2021/01/19 09:43:39;;;;;;;4.40;1.10;;;6.30;94.40;;;;;;5095692;28;20081;-74
2021/01/19 09:46:08;;;;;;;3.42;1.30;;;6.30;94.30;;;;;;5078448;28;20119;-74
2021/01/19 09:48:35;;;;;;;3.50;1.25;;;6.40;94.40;;;;;;5095082;28;20032;-74
2021/01/19 09:51:06;;;;;;;4.20;1.48;;;6.40;94.40;;;;;;5095269;28;20023;-73
2021/01/19 09:53:33;;;;;;;5.95;1.45;;;6.40;94.50;;;;;;5095246;28;20483;-73
2021/01/19 09:56:00;;;;;;;6.45;1.20;;;6.40;94.50;;;;;;5078358;28;20028;-74
2021/01/19 09:58:27;;;;;;;3.92;1.30;;;6.40;94.50;;;;;;5113460;28;20050;-73
2021/01/19 10:00:54;;;;;;;2.05;1.30;;;6.40;94.50;;;;;;5113337;28;20384;-73
2021/01/19 10:03:25;;;;;;;1.35;1.00;;;6.40;94.50;;;;;;5113223;28;20020;-74
2021/01/19 10:05:58;;;;;;;2.40;1.38;;;6.50;94.50;;;;;;5113193;28;20047;-73
2021/01/19 10:08:25;;;;;;;3.15;1.38;;;6.50;94.50;;;;;;5094956;28;20023;-73
2021/01/19 10:10:50;;;;;;;3.50;1.30;;;6.50;94.50;;;;;;5113246;28;20020;-73
2021/01/19 10:13:16;;;;;;;3.42;1.60;;;6.50;94.50;;;;;;5077889;28;20515;-73
2021/01/19 10:15:42;;;;;;;4.10;1.77;;;6.50;94.50;;;;;;5077963;28;20028;-73
2021/01/19 10:18:07;;;;;;;4.50;1.83;;;6.50;94.50;;;;;;5078099;28;20105;-73
2021/01/19 10:20:37;;;;;;;4.60;1.90;;;6.50;94.50;;;;;;5094533;28;20029;-73
2021/01/19 10:23:04;;;;;;;3.92;1.70;;;6.60;94.60;;;;;;5095036;28;20031;-73
2021/01/19 10:25:36;;;;;;;9.82;2.30;;;6.60;94.60;;;;;;5112849;28;20024;-73
2021/01/19 10:28:05;;;;;;;5.45;2.40;;;6.60;94.60;;;;;;5094252;28;20032;-73
2021/01/19 10:30:42;;;;;;;4.20;2.03;;;6.60;94.70;;;;;;5112978;28;20077;-74
2021/01/19 10:33:08;;;;;;;5.38;2.63;;;6.60;94.70;;;;;;5075729;28;20035;-74
2021/01/19 10:35:36;;;;;;;5.32;2.45;;;6.60;94.70;;;;;;5041338;28;20032;-73
2021/01/19 10:38:03;;;;;;;5.50;2.40;;;6.70;94.80;;;;;;5096650;28;20403;-73
2021/01/19 10:40:30;;;;;;;5.90;2.33;;;6.70;94.80;;;;;;5078588;28;20051;-73
2021/01/19 10:42:56;;;;;;;3.38;2.40;;;6.70;94.80;;;;;;5095917;28;20107;-73
2021/01/19 10:45:25;;;;;;;4.07;2.20;;;6.70;94.80;;;;;;5096254;28;20024;-74
2021/01/19 10:47:51;;;;;;;5.13;2.60;;;6.80;94.90;;;;;;5095069;28;20032;-74
2021/01/19 10:50:21;;;;;;;3.15;2.10;;;6.80;94.90;;;;;;5095267;28;20085;-73
2021/01/19 10:52:54;;;;;;;5.45;2.70;;;6.80;94.90;;;;;;5096402;28;20020;-73
2021/01/19 10:55:19;;;;;;;4.75;2.63;;;6.80;94.90;;;;;;5096469;28;20048;-73
2021/01/19 10:57:45;;;;;;;2.95;2.15;;;6.80;94.90;;;;;;5078647;28;20062;-74
2021/01/19 11:00:11;;;;;;;5.85;2.60;;;6.80;94.80;;;;;;5062536;28;20059;-73
2021/01/19 11:02:37;;;;;;;3.92;2.80;;;6.90;94.90;;;;;;5077870;28;20537;-73
2021/01/19 11:05:03;;;;;;;5.72;3.00;;;6.90;94.90;;;;;;5078227;28;20123;-73
2021/01/19 11:07:28;;;;;;;8.00;3.20;;;6.90;94.90;;;;;;5061142;28;20077;-73
2021/01/19 11:09:54;;;;;;;5.82;3.40;;;6.90;95.20;;;;;;5065259;28;20158;-74
2021/01/19 11:12:20;;;;;;;4.85;2.80;;;6.90;95.00;;;;;;5083322;28;20032;-74
2021/01/19 11:14:45;;;;;;;7.30;4.03;;;7.00;95.00;;;;;;5095767;28;20017;-73
2021/01/19 11:17:11;;;;;;;4.43;3.25;;;7.00;95.00;;;;;;5094709;28;20036;-74
2021/01/19 11:19:37;;;;;;;4.38;3.67;;;7.00;95.00;;;;;;5094657;28;20055;-74
2021/01/19 11:22:02;;;;;;;5.25;3.67;;;7.00;95.10;;;;;;5095906;28;20099;-74
2021/01/19 11:24:28;;;;;;;5.35;3.90;;;7.00;95.40;;;;;;5095621;28;20030;-73
2021/01/19 11:26:54;;;;;;;8.85;4.80;;;7.00;95.20;;;;;;5061447;28;20016;-74
2021/01/19 11:29:20;;;;;;;7.22;4.72;;;7.10;95.20;;;;;;5077688;28;20039;-74
2021/01/19 11:31:46;;;;;;;7.63;5.05;;;7.10;95.20;;;;;;5087615;28;20035;-73
2021/01/19 11:34:12;;;;;;;10.80;4.60;;;7.10;95.20;;;;;;5103963;28;20100;-74
2021/01/19 11:36:39;;;;;;;7.57;4.30;;;7.10;95.30;;;;;;5116070;28;20051;-73
2021/01/19 11:39:10;;;;;;;11.23;4.70;;;7.10;95.20;;;;;;5114609;28;20066;-74
2021/01/19 11:41:36;;;;;;;5.45;4.93;;;7.20;95.30;;;;;;5129132;27;20034;-73
2021/01/19 11:44:03;;;;;;;6.00;5.00;;;7.20;95.30;;;;;;5102708;28;20036;-73
2021/01/19 11:46:30;;;;;;;5.60;4.93;;;7.20;95.30;;;;;;5127335;27;20072;-73
2021/01/19 11:48:58;;;;;;;9.35;4.85;;;7.20;95.30;;;;;;5102963;28;20102;-73
2021/01/19 11:51:29;;;;;;;5.82;4.68;;;7.20;95.30;;;;;;5102302;27;20021;-73
2021/01/19 11:53:57;;;;;;;5.20;4.60;;;7.20;95.30;;;;;;5115969;28;20046;-81
2021/01/19 11:56:39;;;;;;;7.82;5.30;;;7.30;95.30;;;;;;5097686;28;20027;-80
2021/01/19 11:59:06;;;;;;;10.88;5.15;;;7.30;95.30;;;;;;5097296;28;20169;-80
2021/01/19 12:01:32;;;;;;;6.68;5.10;;;7.30;95.30;;;;;;5097319;28;20050;-80
2021/01/19 12:03:58;;;;;;;8.05;5.18;;;7.30;95.30;;;;;;5118148;27;20110;-80
2021/01/19 12:06:23;;;;;;;7.25;4.72;;;7.30;95.30;;;;;;5114787;28;20225;-80
2021/01/19 12:08:50;;;;;;;6.47;4.63;;;7.40;95.30;;;;;;5114402;28;20030;-80
2021/01/19 12:11:17;;;;;;;8.60;4.80;;;7.40;95.30;;;;;;5080142;28;20058;-80
2021/01/19 12:13:44;;;;;;;8.35;4.93;;;7.40;95.20;;;;;;5118827;27;20028;-81
2021/01/19 12:16:10;;;;;;;9.98;5.00;;;7.50;95.20;;;;;;5118753;27;20028;-80
2021/01/19 12:18:36;;;;;;;5.47;4.43;;;7.50;95.20;;;;;;5116677;27;20785;-80
2021/01/19 12:21:03;;;;;;;4.95;4.32;;;7.50;95.20;;;;;;5117439;27;20023;-80
2021/01/19 12:23:29;;;;;;;7.05;4.70;;;7.60;95.20;;;;;;5098825;28;20032;-81
2021/01/19 12:25:58;;;;;;;7.10;5.70;;;7.50;95.10;;;;;;5096039;28;20042;-81
2021/01/19 12:28:25;;;;;;;5.50;4.90;;;7.60;95.20;;;;;;5114648;27;20539;-80
2021/01/19 12:30:53;;;;;;;6.05;4.20;;;7.60;95.10;;;;;;5116395;27;20495;-81
2021/01/19 12:33:22;;;;;;;4.45;4.03;;;7.60;95.10;;;;;;5112246;27;20120;-81
2021/01/19 12:35:51;;;;;;;;;;;7.60;95.10;;;;;;5117024;27;20405;-80
2021/01/19 12:38:17;;;;;;;12.30;4.47;;;7.70;95.10;;;;;;5099923;28;19914;-81
2021/01/19 12:40:43;;;;;;;6.03;4.28;;;7.70;95.20;;;;;;5125951;27;20096;-80
2021/01/19 12:43:10;;;;;;;5.00;3.50;;;7.60;95.20;;;;;;5113736;28;20059;-81
2021/01/19 12:45:37;;;;;;;6.07;4.13;;;7.70;95.20;;;;;;5101231;28;20557;-80
2021/01/19 12:48:04;;;;;;;5.45;3.70;;;7.70;95.20;;;;;;5095668;28;20036;-81
2021/01/19 12:50:29;;;;;;;4.35;3.88;;;7.80;95.20;;;;;;5117098;27;20107;-81
2021/01/19 12:52:55;;;;;;;8.05;4.05;;;7.90;95.10;;;;;;5096137;28;20055;-81
2021/01/19 12:55:21;;;;;;;4.90;4.32;;;7.90;95.10;;;;;;5113926;28;20468;-81
2021/01/19 12:57:47;;;;;;;5.93;3.97;;;7.90;95.10;;;;;;5113873;28;20027;-80
2021/01/19 13:00:13;;;;;;;6.47;4.72;;;8.00;95.10;;;;;;5112622;28;20034;-81
2021/01/19 13:02:39;;;;;;;8.60;4.70;;;8.00;95.10;;;;;;5113882;27;20030;-80